createdAt,value
2022-12-16T00:04:20.125Z,22.83
2022-12-16T00:09:28.789Z,21.38
2022-12-16T00:14:37.070Z,21.97
2022-12-16T00:19:46.529Z,22.51
2022-12-16T00:24:56.668Z,22.31
2022-12-16T00:29:55.483Z,21.52
2022-12-16T00:35:04.521Z,22.75
2022-12-16T00:40:13.203Z,22.22
2022-12-16T00:45:21.652Z,21.88
2022-12-16T00:50:30.643Z,20.90
2022-12-16T00:55:40.172Z,20.92
2022-12-16T01:00:48.970Z,20.40
2022-12-16T01:05:57.425Z,20.83
2022-12-16T01:11:06.823Z,19.23
2022-12-16T01:16:15.357Z,19.53
2022-12-16T01:21:24.133Z,17.13
2022-12-16T01:26:32.850Z,17.04
2022-12-16T01:31:41.664Z,16.89
2022-12-16T01:36:50.644Z,15.99
2022-12-16T01:41:59.545Z,17.90
2022-12-16T01:47:08.848Z,17.27
2022-12-16T01:52:17.765Z,17.84
2022-12-16T01:57:25.972Z,17.58
2022-12-16T02:02:35.401Z,16.99
2022-12-16T02:07:43.741Z,17.75
2022-12-16T02:12:51.917Z,15.81
2022-12-16T02:18:00.405Z,14.86
2022-12-16T02:23:09.161Z,16.56
2022-12-16T02:28:17.915Z,15.92
2022-12-16T02:33:26.817Z,17.27
2022-12-16T02:38:35.144Z,17.11
2022-12-16T02:43:43.950Z,16.15
2022-12-16T02:48:52.164Z,16.20
2022-12-16T02:54:01.135Z,16.04
2022-12-16T02:59:09.804Z,14.34
2022-12-16T03:04:18.534Z,15.05
2022-12-16T03:09:27.093Z,14.34
2022-12-16T03:14:35.911Z,12.02
2022-12-16T03:19:44.063Z,14.40
2022-12-16T03:24:53.228Z,14.84
2022-12-16T03:30:01.642Z,14.92
2022-12-16T03:35:10.864Z,13.81
2022-12-16T03:40:19.735Z,13.27
2022-12-16T03:45:28.206Z,15.36
2022-12-16T03:50:36.751Z,15.37
2022-12-16T03:55:45.103Z,16.19
2022-12-16T04:00:53.728Z,14.24
2022-12-16T04:06:02.057Z,18.60
2022-12-16T04:11:10.695Z,15.98
2022-12-16T04:16:19.301Z,15.51
2022-12-16T04:21:27.694Z,16.99
2022-12-16T04:26:36.512Z,17.63
2022-12-16T04:31:44.986Z,17.42
2022-12-16T04:36:53.808Z,17.25
2022-12-16T04:42:02.432Z,16.25
2022-12-16T04:47:11.333Z,15.12
2022-12-16T04:52:19.686Z,16.86
2022-12-16T04:57:28.605Z,17.53
2022-12-16T05:02:37.163Z,16.76
2022-12-16T05:07:45.930Z,17.87
2022-12-16T05:12:54.699Z,18.33
2022-12-16T05:18:03.627Z,17.71
2022-12-16T05:23:12.163Z,18.04
2022-12-16T05:28:21.011Z,18.14
2022-12-16T05:33:29.557Z,16.92
2022-12-16T05:38:38.522Z,18.92
2022-12-16T05:43:47.233Z,18.27
2022-12-16T05:48:56.179Z,18.15
2022-12-16T05:54:04.549Z,17.71
2022-12-16T05:59:13.380Z,18.11
2022-12-16T06:04:22.073Z,19.46
2022-12-16T06:09:30.755Z,17.92
2022-12-16T06:14:39.006Z,17.43
2022-12-16T06:19:47.690Z,16.55
2022-12-16T06:24:56.189Z,17.59
2022-12-16T06:30:05.069Z,18.08
2022-12-16T06:35:13.451Z,17.75
2022-12-16T06:40:22.606Z,20.81
2022-12-16T06:45:34.660Z,24.15
2022-12-16T06:50:44.681Z,24.11
2022-12-16T06:55:47.945Z,24.64
2022-12-16T07:00:56.809Z,21.46
2022-12-16T07:06:05.318Z,21.11
2022-12-16T07:11:17.096Z,24.49
2022-12-16T07:16:22.550Z,22.09
2022-12-16T07:21:31.190Z,19.99
2022-12-16T07:26:39.681Z,21.00
2022-12-16T07:31:48.398Z,21.29
2022-12-16T07:36:56.700Z,21.60
2022-12-16T07:42:05.461Z,21.14
2022-12-16T07:47:14.156Z,19.21
2022-12-16T07:52:22.764Z,20.61
2022-12-16T07:57:31.046Z,20.46
2022-12-16T08:02:40.113Z,19.89
2022-12-16T08:07:48.153Z,20.50
2022-12-16T08:12:57.002Z,19.54
2022-12-16T08:18:05.382Z,18.22
2022-12-16T08:23:13.881Z,18.57
2022-12-16T08:28:21.990Z,17.73
2022-12-16T08:33:30.338Z,26.78
2022-12-16T08:38:39.015Z,21.86
2022-12-16T08:43:47.418Z,21.15
2022-12-16T08:48:55.770Z,18.64
2022-12-16T08:54:04.590Z,18.50
2022-12-16T08:59:13.307Z,18.97
2022-12-16T09:04:21.549Z,17.77
2022-12-16T09:09:29.640Z,18.06
2022-12-16T09:14:39.064Z,21.15
2022-12-16T09:19:47.600Z,23.00
2022-12-16T09:24:56.391Z,22.20
2022-12-16T09:30:04.718Z,28.57
2022-12-16T09:35:13.830Z,21.24
2022-12-16T09:40:20.939Z,19.33
2022-12-16T09:45:29.696Z,18.91
2022-12-16T09:50:37.940Z,22.47
2022-12-16T09:55:46.340Z,20.98
2022-12-16T10:00:54.770Z,23.41
2022-12-16T10:06:02.851Z,22.12
2022-12-16T10:11:11.193Z,21.07
2022-12-16T10:16:20.015Z,20.86
2022-12-16T10:21:27.989Z,33.86
2022-12-16T10:26:36.946Z,49.04
2022-12-16T10:31:45.649Z,35.64
2022-12-16T10:36:54.854Z,26.43
2022-12-16T10:42:03.544Z,25.90
2022-12-16T10:47:12.590Z,24.00
2022-12-16T10:52:20.862Z,23.50
2022-12-16T10:57:29.747Z,23.99
2022-12-16T11:02:38.790Z,23.21
2022-12-16T11:07:47.404Z,24.07
2022-12-16T11:12:55.582Z,23.60
2022-12-16T11:18:04.334Z,21.84
2022-12-16T11:23:12.707Z,23.62
2022-12-16T11:28:21.699Z,21.50
2022-12-16T11:33:30.821Z,21.00
2022-12-16T11:38:38.698Z,22.36
2022-12-16T11:43:47.321Z,22.10
2022-12-16T11:48:56.347Z,19.91
2022-12-16T11:54:04.874Z,20.01
2022-12-16T11:59:13.924Z,21.32
2022-12-16T12:04:22.052Z,20.51
2022-12-16T12:09:30.867Z,19.35
2022-12-16T12:14:39.443Z,19.40
2022-12-16T12:19:48.747Z,20.42
2022-12-16T12:24:58.187Z,19.84
2022-12-16T12:30:05.369Z,18.54
2022-12-16T12:35:13.854Z,19.74
2022-12-16T12:40:22.763Z,20.20
2022-12-16T12:45:31.351Z,18.42
2022-12-16T12:50:40.669Z,19.91
2022-12-16T12:55:49.387Z,19.98
2022-12-16T13:00:59.095Z,23.00
2022-12-16T13:06:07.421Z,24.00
2022-12-16T13:11:15.867Z,21.25
2022-12-16T13:16:24.196Z,26.19
2022-12-16T13:21:32.712Z,24.78
2022-12-16T13:26:41.263Z,24.13
2022-12-16T13:31:50.206Z,20.43
2022-12-16T13:36:58.677Z,20.41
2022-12-16T13:42:07.180Z,19.61
2022-12-16T13:47:15.464Z,19.80
2022-12-16T13:52:24.890Z,20.75
2022-12-16T13:57:33.631Z,20.16
2022-12-16T14:02:42.853Z,20.53
2022-12-16T14:07:51.300Z,19.75
2022-12-16T14:13:00.220Z,21.02
2022-12-16T14:18:08.744Z,22.06
2022-12-16T14:23:39.149Z,25.25
2022-12-16T14:28:25.248Z,22.29
2022-12-16T14:33:34.200Z,21.10
2022-12-16T14:38:42.775Z,21.44
2022-12-16T14:43:51.421Z,21.79
2022-12-16T14:49:00.828Z,22.08
2022-12-16T14:54:09.557Z,22.10
2022-12-16T14:59:17.932Z,22.36
2022-12-16T15:04:27.228Z,21.43
2022-12-16T15:09:35.703Z,18.48
2022-12-16T15:14:44.706Z,19.40
2022-12-16T15:19:53.237Z,18.98
2022-12-16T15:25:02.265Z,20.06
2022-12-16T15:30:10.631Z,22.55
2022-12-16T15:35:19.263Z,19.73
2022-12-16T15:40:28.119Z,21.47
2022-12-16T15:45:36.513Z,21.99
2022-12-16T15:50:45.105Z,22.76
2022-12-16T15:55:53.593Z,22.02
2022-12-16T16:01:02.630Z,22.18
2022-12-16T16:06:11.963Z,23.30
2022-12-16T16:11:23.784Z,21.38
2022-12-16T16:16:22.667Z,23.56
2022-12-16T16:21:30.937Z,23.72
2022-12-16T16:26:39.692Z,23.90
2022-12-16T16:31:48.415Z,23.39
2022-12-16T16:36:57.841Z,23.99
2022-12-16T16:42:06.219Z,22.48
2022-12-16T16:47:14.803Z,22.95
2022-12-16T16:52:24.040Z,25.16
2022-12-16T16:57:33.101Z,26.95
2022-12-16T17:02:41.748Z,28.01
2022-12-16T17:07:53.749Z,24.56
2022-12-16T17:13:04.094Z,26.10
2022-12-16T17:18:06.358Z,26.73
2022-12-16T17:23:15.861Z,27.17
2022-12-16T17:28:18.357Z,26.01
2022-12-16T17:33:28.060Z,24.25
2022-12-16T17:38:37.458Z,25.09
2022-12-16T17:43:46.235Z,25.01
2022-12-16T17:48:55.141Z,22.73
2022-12-16T17:54:12.129Z,22.88
2022-12-16T17:59:12.363Z,22.39
2022-12-16T18:04:20.865Z,20.89
2022-12-16T18:09:29.637Z,21.62
2022-12-16T18:14:37.792Z,21.54
2022-12-16T18:19:46.593Z,20.97
2022-12-16T18:24:55.424Z,22.77
2022-12-16T18:30:04.557Z,20.56
2022-12-16T18:35:08.028Z,20.53
2022-12-16T18:40:16.691Z,20.29
2022-12-16T18:45:26.429Z,22.81
2022-12-16T18:50:38.125Z,21.82
2022-12-16T18:55:43.395Z,24.19
2022-12-16T19:00:53.178Z,22.20
2022-12-16T19:05:54.593Z,21.03
2022-12-16T19:11:03.774Z,19.57
2022-12-16T19:16:12.243Z,19.86
2022-12-16T19:21:21.256Z,20.78
2022-12-16T19:26:29.773Z,20.69
2022-12-16T19:31:38.431Z,20.52
2022-12-16T19:36:47.072Z,21.38
2022-12-16T19:47:03.997Z,22.64
2022-12-16T19:52:12.852Z,20.69
2022-12-16T19:57:21.471Z,21.34
2022-12-16T20:02:30.658Z,19.84
2022-12-16T20:07:38.902Z,21.26
2022-12-16T20:12:47.737Z,20.58
2022-12-16T20:17:56.307Z,22.79
2022-12-16T20:23:04.757Z,19.31
2022-12-16T20:28:13.108Z,20.95
2022-12-16T20:33:21.908Z,21.01
2022-12-16T20:38:30.040Z,19.83
2022-12-16T20:43:39.021Z,20.08
2022-12-16T20:48:46.811Z,22.07
2022-12-16T20:53:56.468Z,21.50
2022-12-16T20:59:03.196Z,20.44
2022-12-16T21:04:12.125Z,19.82
2022-12-16T21:09:20.885Z,19.84
2022-12-16T21:14:29.913Z,18.65
2022-12-16T21:19:38.366Z,18.28
2022-12-16T21:24:47.027Z,17.89
2022-12-16T21:29:56.043Z,18.69
2022-12-16T21:35:05.620Z,17.41
2022-12-16T21:40:13.874Z,18.01
2022-12-16T21:45:22.455Z,19.32
2022-12-16T21:50:32.848Z,19.20
2022-12-16T21:55:32.363Z,19.57
2022-12-16T22:00:40.779Z,21.55
2022-12-16T22:05:49.195Z,20.21
2022-12-16T22:10:57.709Z,19.95
2022-12-16T22:16:07.148Z,19.67
2022-12-16T22:21:15.413Z,21.32
2022-12-16T22:26:24.185Z,19.23
2022-12-16T22:31:32.744Z,19.87
2022-12-16T22:36:41.194Z,19.99
2022-12-16T22:41:49.606Z,20.21
2022-12-16T22:46:58.377Z,21.04
2022-12-16T22:52:06.822Z,20.13
2022-12-16T22:57:15.617Z,19.60
2022-12-16T23:02:23.975Z,19.94
2022-12-16T23:07:32.800Z,18.62
2022-12-16T23:12:41.454Z,20.19
2022-12-16T23:17:50.304Z,20.92
2022-12-16T23:22:58.530Z,17.97
2022-12-16T23:28:07.425Z,19.54
2022-12-16T23:33:15.859Z,19.45
2022-12-16T23:38:24.540Z,19.96
2022-12-16T23:43:33.009Z,19.06
2022-12-16T23:48:42.114Z,18.02
2022-12-16T23:53:50.491Z,17.92
2022-12-16T23:58:59.595Z,18.31
